Kezdőlap
METAR-TAF:

METAR-TAF

Repülőterek :

Wilkes-Barre-Scranton, Pennsylvania, Amerikai Egyesült Államok

földrajzi szélesség: 41-20-20N, földrajzi hosszúság: 075-43-36W, magasság: 293 m

Jelenlegi meteorológiai megfigyelések

A jelentés 36 perccel ezelõtt készült, 17:54 UTC
Dél-délnyugati szél 10 kt széllökések: 15 kt
Hőmérséklet 10°C
Páratartalom 20%
Légköri nyomás 1020 hPa
Látótávolság: 16.1 km
Derült ég

METAR: KAVP 231754Z 21010G15KT 10SM CLR 10/M12 A3012 RMK AO2 SLP202 T01001117 10100 21039 58023

Idő: 13:30 (18:30 UTC)

Előrejelzés

A jelentés 1 órával és 5 perccel ezelõtt készült, 17:25 UTC
Az előrejelzés 23-én 18 óra UTC és 24-én 18 óra UTC között érvényes
Különbözõ irányokból fújó szél 4 kt
Látótávolság: 10 km
Derült ég

TAF: KAVP 231725Z 2318/2418 VRB04KT P6SM SKC

Meteorológiai megfigyelések és előrejelzések több, mint 4000 repülőtéren (METAR és TAF jelentéseket).

A térképen piros és sárga pontok jelzik az elérhető meteorológiai állomásokat.

Mozgassa az egeret a pont fölött, hogy megjelenjen az állomás neve.

Azután kattintson az időjárási megfigyelések és előrejelzések megtekintéséhez.

A térkép megváltoztatása: kattintson a fekete keresztel jelölt zöld gombra ráközelítéshez, a vonallal jelölt zöld gombra távolításhoz, vagy a zöld nyilakra a szomszédos térképek eléréséhez.


METAR-TAF: